createdAt,value
2016-05-12T00:00:57.386Z,0
2016-05-12T00:01:57.138Z,0
2016-05-12T00:02:56.969Z,0
2016-05-12T00:03:57.112Z,0
2016-05-12T00:04:56.927Z,0
2016-05-12T00:05:56.914Z,0
2016-05-12T00:06:56.885Z,0
2016-05-12T00:07:56.857Z,0
2016-05-12T00:08:57.000Z,0
2016-05-12T00:09:56.971Z,0
2016-05-12T00:10:56.960Z,0
2016-05-12T00:11:56.930Z,0
2016-05-12T00:12:56.918Z,0
2016-05-12T00:13:56.749Z,0
2016-05-12T00:14:56.891Z,0
2016-05-12T00:15:56.879Z,0
2016-05-12T00:16:56.850Z,0
2016-05-12T00:17:56.821Z,0
2016-05-12T00:18:56.809Z,0
2016-05-12T00:19:56.780Z,0
2016-05-12T00:20:56.611Z,0
2016-05-12T00:21:56.739Z,0
2016-05-12T00:22:56.725Z,0
2016-05-12T00:23:56.573Z,0
2016-05-12T00:24:56.685Z,0
2016-05-12T00:25:56.656Z,0
2016-05-12T00:26:56.658Z,0
2016-05-12T00:27:56.473Z,0
2016-05-12T00:28:56.460Z,0
2016-05-12T00:29:56.588Z,0
2016-05-12T00:30:56.825Z,0
2016-05-12T00:31:56.547Z,0
2016-05-12T00:32:56.534Z,0
2016-05-12T00:33:56.349Z,0
2016-05-12T00:34:56.508Z,0
2016-05-12T00:35:56.464Z,0
2016-05-12T00:36:56.450Z,0
2016-05-12T00:37:56.422Z,0
2016-05-12T00:38:56.425Z,0
2016-05-12T00:39:56.256Z,0
2016-05-12T00:40:56.211Z,0
2016-05-12T00:41:56.355Z,0
2016-05-12T00:42:56.326Z,0
2016-05-12T00:43:56.173Z,0
2016-05-12T00:44:56.143Z,0
2016-05-12T00:45:56.553Z,0
2016-05-12T00:46:56.244Z,0
2016-05-12T00:47:56.230Z,0
2016-05-12T00:48:56.218Z,0
2016-05-12T00:49:56.189Z,0
2016-05-12T00:50:56.176Z,0
2016-05-12T00:51:56.006Z,0
2016-05-12T00:52:56.134Z,0
2016-05-12T00:53:56.106Z,0
2016-05-12T00:54:56.093Z,0
2016-05-12T00:55:56.080Z,0
2016-05-12T00:56:55.895Z,0
2016-05-12T00:57:55.882Z,0
2016-05-12T00:58:56.010Z,0
2016-05-12T00:59:55.841Z,0
2016-05-12T01:00:55.733Z,0
2016-05-12T01:01:55.956Z,0
2016-05-12T01:02:55.928Z,0
2016-05-12T01:03:55.914Z,0
2016-05-12T01:04:55.885Z,0
2016-05-12T01:05:55.872Z,0
2016-05-12T01:06:55.703Z,0
2016-05-12T01:07:55.675Z,0
2016-05-12T01:08:55.834Z,0
2016-05-12T01:09:55.789Z,0
2016-05-12T01:10:55.777Z,0
2016-05-12T01:11:55.748Z,0
2016-05-12T01:12:55.735Z,0
2016-05-12T01:13:55.738Z,0
2016-05-12T01:14:55.694Z,0
2016-05-12T01:15:55.666Z,0
2016-05-12T01:16:56.043Z,0
2016-05-12T01:17:55.623Z,0
2016-05-12T01:18:55.610Z,0
2016-05-12T01:19:55.598Z,0
2016-05-12T01:20:55.600Z,0
2016-05-12T01:21:55.557Z,0
2016-05-12T01:22:55.371Z,0
2016-05-12T01:23:55.202Z,0
2016-05-12T01:24:55.487Z,0
2016-05-12T01:25:55.457Z,0
2016-05-12T01:26:55.320Z,0
2016-05-12T01:27:55.462Z,0
2016-05-12T01:28:55.247Z,0
2016-05-12T01:29:55.390Z,0
2016-05-12T01:30:55.362Z,0
2016-05-12T01:31:55.208Z,0
2016-05-12T01:32:55.180Z,0
2016-05-12T01:33:55.166Z,0
2016-05-12T01:34:55.294Z,0
2016-05-12T01:35:55.266Z,0
2016-05-12T01:36:55.253Z,0
2016-05-12T01:37:55.069Z,0
2016-05-12T01:38:55.211Z,0
2016-05-12T01:39:55.214Z,0
2016-05-12T01:40:55.169Z,0
2016-05-12T01:41:55.142Z,0
2016-05-12T01:42:55.128Z,0
2016-05-12T01:43:55.099Z,0
2016-05-12T01:44:55.087Z,0
2016-05-12T01:45:54.918Z,0
2016-05-12T01:46:55.280Z,0
2016-05-12T01:47:55.032Z,0
2016-05-12T01:48:55.004Z,0
2016-05-12T01:49:54.976Z,0
2016-05-12T01:50:54.962Z,0
2016-05-12T01:51:54.949Z,0
2016-05-12T01:52:54.765Z,0
2016-05-12T01:53:54.892Z,0
2016-05-12T01:54:54.879Z,0
2016-05-12T01:55:54.851Z,0
2016-05-12T01:56:54.838Z,0
2016-05-12T01:57:54.512Z,0
2016-05-12T01:58:54.500Z,0
2016-05-12T01:59:54.612Z,0
2016-05-12T02:00:54.598Z,0
2016-05-12T02:01:54.428Z,0
2016-05-12T02:02:54.728Z,0
2016-05-12T02:03:54.701Z,0
2016-05-12T02:04:54.672Z,0
2016-05-12T02:05:54.643Z,0
2016-05-12T02:06:54.630Z,0
2016-05-12T02:07:54.617Z,0
2016-05-12T02:08:54.605Z,0
2016-05-12T02:09:54.575Z,0
2016-05-12T02:10:54.563Z,0
2016-05-12T02:11:54.535Z,0
2016-05-12T02:12:54.208Z,0
2016-05-12T02:13:54.493Z,0
2016-05-12T02:14:54.464Z,0
2016-05-12T02:15:54.451Z,0
2016-05-12T02:16:54.142Z,0
2016-05-12T02:17:54.410Z,0
2016-05-12T02:18:54.396Z,0
2016-05-12T02:19:54.213Z,0
2016-05-12T02:20:54.340Z,0
2016-05-12T02:21:54.327Z,0
2016-05-12T02:22:54.157Z,0
2016-05-12T02:23:54.270Z,0
2016-05-12T02:24:54.257Z,0
2016-05-12T02:25:54.088Z,0
2016-05-12T02:26:54.231Z,0
2016-05-12T02:27:54.203Z,0
2016-05-12T02:28:54.017Z,0
2016-05-12T02:29:54.161Z,0
2016-05-12T02:30:54.132Z,0
2016-05-12T02:31:53.979Z,0
2016-05-12T02:32:54.092Z,0
2016-05-12T02:33:54.078Z,0
2016-05-12T02:34:53.908Z,0
2016-05-12T02:35:54.084Z,0
2016-05-12T02:36:54.023Z,0
2016-05-12T02:37:53.854Z,0
2016-05-12T02:38:53.983Z,0
2016-05-12T02:39:53.969Z,0
2016-05-12T02:40:53.941Z,0
2016-05-12T02:41:53.912Z,0
2016-05-12T02:42:53.914Z,0
2016-05-12T02:43:53.871Z,0
2016-05-12T02:44:53.529Z,0
2016-05-12T02:45:53.672Z,0
2016-05-12T02:46:53.660Z,0
2016-05-12T02:47:53.788Z,0
2016-05-12T02:48:53.759Z,0
2016-05-12T02:49:53.730Z,0
2016-05-12T02:50:53.718Z,0
2016-05-12T02:51:53.549Z,0
2016-05-12T02:52:53.676Z,0
2016-05-12T02:53:53.366Z,0
2016-05-12T02:54:53.478Z,0
2016-05-12T02:55:53.606Z,0
2016-05-12T02:56:53.592Z,0
2016-05-12T02:57:53.423Z,0
2016-05-12T02:58:53.552Z,0
2016-05-12T02:59:53.382Z,0
2016-05-12T03:00:53.354Z,0
2016-05-12T03:01:53.731Z,0
2016-05-12T03:02:53.468Z,0
2016-05-12T03:03:53.299Z,0
2016-05-12T03:04:53.271Z,0
2016-05-12T03:05:53.398Z,0
2016-05-12T03:06:53.386Z,0
2016-05-12T03:07:53.060Z,0
2016-05-12T03:08:53.344Z,0
2016-05-12T03:09:53.175Z,0
2016-05-12T03:10:53.162Z,0
2016-05-12T03:11:53.289Z,0
2016-05-12T03:12:53.261Z,0
2016-05-12T03:13:53.233Z,0
2016-05-12T03:14:53.079Z,0
2016-05-12T03:15:53.191Z,0
2016-05-12T03:16:53.349Z,0
2016-05-12T03:17:53.009Z,0
2016-05-12T03:18:53.136Z,0
2016-05-12T03:19:53.108Z,0
2016-05-12T03:20:53.096Z,0
2016-05-12T03:21:53.066Z,0
2016-05-12T03:22:53.053Z,0
2016-05-12T03:23:53.071Z,0
2016-05-12T03:24:52.856Z,0
2016-05-12T03:25:52.827Z,0
2016-05-12T03:26:52.970Z,5
2016-05-12T03:27:52.942Z,5
2016-05-12T03:28:52.913Z,5
2016-05-12T03:29:52.900Z,5
2016-05-12T03:30:52.872Z,5
2016-05-12T03:31:52.718Z,5
2016-05-12T03:32:52.690Z,5
2016-05-12T03:33:52.817Z,10
2016-05-12T03:34:52.633Z,10
2016-05-12T03:35:52.791Z,10
2016-05-12T03:36:52.606Z,10
2016-05-12T03:37:52.578Z,10
2016-05-12T03:38:52.394Z,15
2016-05-12T03:39:52.693Z,15
2016-05-12T03:40:52.508Z,15
2016-05-12T03:41:52.479Z,20
2016-05-12T03:42:52.622Z,20
2016-05-12T03:43:52.610Z,20
2016-05-12T03:44:52.581Z,25
2016-05-12T03:45:52.412Z,25
2016-05-12T03:46:53.133Z,25
2016-05-12T03:47:52.527Z,30
2016-05-12T03:48:52.342Z,30
2016-05-12T03:49:52.485Z,35
2016-05-12T03:50:52.457Z,35
2016-05-12T03:51:52.429Z,40
2016-05-12T03:52:52.416Z,40
2016-05-12T03:53:52.387Z,45
2016-05-12T03:54:52.233Z,45
2016-05-12T03:55:52.189Z,50
2016-05-12T03:56:52.332Z,50
2016-05-12T03:57:52.148Z,55
2016-05-12T03:58:52.276Z,60
2016-05-12T03:59:52.263Z,60
2016-05-12T04:00:52.249Z,65
2016-05-12T04:01:52.940Z,70
2016-05-12T04:02:52.208Z,70
2016-05-12T04:03:52.179Z,75
2016-05-12T04:04:52.010Z,75
2016-05-12T04:05:52.138Z,80
2016-05-12T04:06:52.109Z,85
2016-05-12T04:07:52.097Z,85
2016-05-12T04:08:52.083Z,90
2016-05-12T04:09:52.055Z,95
2016-05-12T04:10:52.026Z,95
2016-05-12T04:11:52.014Z,100
2016-05-12T04:12:51.985Z,105
2016-05-12T04:13:51.988Z,105
2016-05-12T04:14:51.943Z,110
2016-05-12T04:15:51.930Z,115
2016-05-12T04:16:51.699Z,115
2016-05-12T04:17:51.888Z,120
2016-05-12T04:18:51.564Z,125
2016-05-12T04:19:51.847Z,125
2016-05-12T04:20:51.850Z,125
2016-05-12T04:21:51.805Z,130
2016-05-12T04:22:51.777Z,130
2016-05-12T04:23:51.748Z,135
2016-05-12T04:24:51.751Z,140
2016-05-12T04:25:51.723Z,140
2016-05-12T04:26:51.694Z,145
2016-05-12T04:27:51.525Z,145
2016-05-12T04:28:51.653Z,150
2016-05-12T04:29:51.624Z,155
2016-05-12T04:30:51.612Z,155
2016-05-12T04:31:51.801Z,160
2016-05-12T04:32:51.570Z,165
2016-05-12T04:33:51.573Z,165
2016-05-12T04:34:51.544Z,170
2016-05-12T04:35:51.515Z,170
2016-05-12T04:36:51.502Z,175
2016-05-12T04:37:51.318Z,175
2016-05-12T04:38:51.446Z,180
2016-05-12T04:39:51.276Z,185
2016-05-12T04:40:51.091Z,185
2016-05-12T04:41:51.234Z,190
2016-05-12T04:42:51.440Z,190
2016-05-12T04:43:51.350Z,195
2016-05-12T04:44:51.165Z,200
2016-05-12T04:45:51.136Z,200
2016-05-12T04:46:51.373Z,210
2016-05-12T04:47:51.110Z,205
2016-05-12T04:48:51.238Z,210
2016-05-12T04:49:51.224Z,210
2016-05-12T04:50:51.197Z,215
2016-05-12T04:51:51.183Z,215
2016-05-12T04:52:51.155Z,220
2016-05-12T04:53:51.126Z,220
2016-05-12T04:54:51.113Z,225
2016-05-12T04:55:51.101Z,225
2016-05-12T04:56:51.072Z,230
2016-05-12T04:57:51.059Z,230
2016-05-12T04:58:50.718Z,230
2016-05-12T04:59:51.002Z,235
2016-05-12T05:00:50.989Z,235
2016-05-12T05:01:51.460Z,240
2016-05-12T05:02:50.947Z,240
2016-05-12T05:03:50.935Z,245
2016-05-12T05:04:50.921Z,245
2016-05-12T05:05:50.893Z,250
2016-05-12T05:06:50.709Z,255
2016-05-12T05:07:50.851Z,255
2016-05-12T05:08:50.823Z,260
2016-05-12T05:09:50.809Z,260
2016-05-12T05:10:50.781Z,265
2016-05-12T05:11:51.769Z,270
2016-05-12T05:12:50.740Z,275
2016-05-12T05:13:50.727Z,275
2016-05-12T05:14:50.558Z,280
2016-05-12T05:15:50.685Z,285
2016-05-12T05:16:50.953Z,290
2016-05-12T05:17:50.503Z,295
2016-05-12T05:18:50.631Z,295
2016-05-12T05:19:50.665Z,300
2016-05-12T05:20:50.683Z,300
2016-05-12T05:21:50.577Z,305
2016-05-12T05:22:50.532Z,310
2016-05-12T05:23:50.536Z,315
2016-05-12T05:24:50.382Z,315
2016-05-12T05:25:50.478Z,320
2016-05-12T05:26:50.309Z,325
2016-05-12T05:27:50.296Z,330
2016-05-12T05:28:50.454Z,330
2016-05-12T05:29:50.410Z,335
2016-05-12T05:30:50.382Z,335
2016-05-12T05:31:50.104Z,340
2016-05-12T05:32:50.496Z,345
2016-05-12T05:33:50.343Z,350
2016-05-12T05:34:50.159Z,350
2016-05-12T05:35:50.286Z,350
2016-05-12T05:36:50.273Z,355
2016-05-12T05:37:50.259Z,360
2016-05-12T05:38:50.232Z,365
2016-05-12T05:39:50.204Z,375
2016-05-12T05:40:50.190Z,380
2016-05-12T05:41:50.178Z,390
2016-05-12T05:42:49.992Z,395
2016-05-12T05:43:49.979Z,395
2016-05-12T05:44:50.139Z,395
2016-05-12T05:45:50.094Z,400
2016-05-12T05:46:50.097Z,405
2016-05-12T05:47:50.053Z,405
2016-05-12T05:48:49.883Z,405
2016-05-12T05:49:50.011Z,410
2016-05-12T05:50:50.014Z,415
2016-05-12T05:51:49.985Z,420
2016-05-12T05:52:49.972Z,420
2016-05-12T05:53:49.959Z,425
2016-05-12T05:54:49.930Z,430
2016-05-12T05:55:49.919Z,430
2016-05-12T05:56:49.890Z,435
2016-05-12T05:57:49.876Z,445
2016-05-12T05:58:49.863Z,595
2016-05-12T05:59:49.835Z,870
2016-05-12T06:00:49.822Z,1020
2016-05-12T06:01:50.153Z,1025
2016-05-12T06:02:49.812Z,1040
2016-05-12T06:03:49.784Z,1065
2016-05-12T06:04:49.755Z,1080
2016-05-12T06:05:49.585Z,1085
2016-05-12T06:06:49.729Z,1105
2016-05-12T06:07:49.715Z,1145
2016-05-12T06:08:49.687Z,1145
2016-05-12T06:09:49.674Z,1145
2016-05-12T06:10:49.662Z,1130
2016-05-12T06:11:49.648Z,1140
2016-05-12T06:12:49.526Z,1150
2016-05-12T06:13:49.622Z,1130
2016-05-12T06:14:49.609Z,1160
2016-05-12T06:15:49.425Z,1195
2016-05-12T06:16:49.569Z,1205
2016-05-12T06:17:49.571Z,1205
2016-05-12T06:18:49.542Z,1230
2016-05-12T06:19:49.530Z,1240
2016-05-12T06:20:49.516Z,1240
2016-05-12T06:21:49.488Z,1255
2016-05-12T06:22:49.475Z,1280
2016-05-12T06:23:49.258Z,1280
2016-05-12T06:24:49.465Z,1285
2016-05-12T06:25:49.452Z,1270
2016-05-12T06:26:49.439Z,1265
2016-05-12T06:27:49.269Z,1305
2016-05-12T06:28:49.257Z,1320
2016-05-12T06:29:49.229Z,1315
2016-05-12T06:30:49.371Z,1335
2016-05-12T06:31:49.359Z,1265
2016-05-12T06:32:49.345Z,935
2016-05-12T06:33:49.318Z,560
2016-05-12T06:34:49.320Z,450
2016-05-12T06:35:49.290Z,450
2016-05-12T06:36:49.294Z,450
2016-05-12T06:37:49.281Z,455
2016-05-12T06:38:49.268Z,465
2016-05-12T06:39:49.240Z,475
2016-05-12T06:40:49.259Z,600
2016-05-12T06:41:49.214Z,965
2016-05-12T06:42:49.201Z,1355
2016-05-12T06:43:49.219Z,1485
2016-05-12T06:44:49.159Z,1430
2016-05-12T06:45:49.147Z,1425
2016-05-12T06:46:48.992Z,1450
2016-05-12T06:47:49.136Z,1430
2016-05-12T06:48:49.107Z,1415
2016-05-12T06:49:49.137Z,1425
2016-05-12T06:50:49.167Z,1405
2016-05-12T06:51:49.197Z,1380
2016-05-12T06:52:49.243Z,1400
2016-05-12T06:53:49.273Z,1455
2016-05-12T06:54:49.260Z,1480
2016-05-12T06:55:49.263Z,1485
2016-05-12T06:56:49.108Z,1530
2016-05-12T06:57:49.267Z,1550
2016-05-12T06:58:49.285Z,1490
2016-05-12T06:59:49.262Z,1565
2016-05-12T07:00:49.255Z,1540
2016-05-12T07:01:49.325Z,1550
2016-05-12T07:02:49.084Z,1545
2016-05-12T07:03:49.231Z,1500
2016-05-12T07:04:48.908Z,1520
2016-05-12T07:05:48.913Z,1550
2016-05-12T07:06:49.215Z,1540
2016-05-12T07:07:49.250Z,1500
2016-05-12T07:08:49.177Z,1495
2016-05-12T07:09:49.181Z,1420
2016-05-12T07:10:49.169Z,1315
2016-05-12T07:11:49.140Z,1255
2016-05-12T07:12:49.128Z,1185
2016-05-12T07:13:49.132Z,1185
2016-05-12T07:14:49.103Z,1180
2016-05-12T07:15:49.106Z,1110
2016-05-12T07:16:48.938Z,1035
2016-05-12T07:17:49.097Z,980
2016-05-12T07:18:49.084Z,935
2016-05-12T07:19:48.900Z,940
2016-05-12T07:20:49.042Z,910
2016-05-12T07:21:48.889Z,885
2016-05-12T07:22:49.017Z,870
2016-05-12T07:23:49.020Z,885
2016-05-12T07:24:48.867Z,1160
2016-05-12T07:25:48.994Z,1705
2016-05-12T07:26:48.824Z,1865
2016-05-12T07:27:48.812Z,1860
2016-05-12T07:28:48.799Z,1855
2016-05-12T07:29:48.786Z,1865
2016-05-12T07:30:48.945Z,1790
2016-05-12T07:31:48.635Z,1855
2016-05-12T07:32:48.919Z,1865
2016-05-12T07:33:48.891Z,1815
2016-05-12T07:34:48.908Z,1995
2016-05-12T07:35:48.724Z,2045
2016-05-12T07:36:48.868Z,2040
2016-05-12T07:37:48.713Z,2040
2016-05-12T07:38:48.841Z,1925
2016-05-12T07:39:48.829Z,1890
2016-05-12T07:40:48.675Z,1875
2016-05-12T07:41:48.802Z,1810
2016-05-12T07:42:48.665Z,1780
2016-05-12T07:43:48.792Z,1785
2016-05-12T07:44:48.796Z,1865
2016-05-12T07:45:48.782Z,1920
2016-05-12T07:46:48.770Z,1945
2016-05-12T07:47:48.756Z,1880
2016-05-12T07:48:48.759Z,1850
2016-05-12T07:49:48.731Z,1840
2016-05-12T07:50:48.717Z,1865
2016-05-12T07:51:48.705Z,1950
2016-05-12T07:52:48.567Z,1900
2016-05-12T07:53:48.679Z,1990
2016-05-12T07:54:48.681Z,1980
2016-05-12T07:55:48.512Z,2025
2016-05-12T07:56:48.672Z,2055
2016-05-12T07:57:48.642Z,2040
2016-05-12T07:58:48.645Z,2070
2016-05-12T07:59:48.632Z,2090
2016-05-12T08:00:48.619Z,2090
2016-05-12T08:01:49.700Z,2120
2016-05-12T08:02:48.750Z,2070
2016-05-12T08:03:48.455Z,2025
2016-05-12T08:04:48.583Z,2030
2016-05-12T08:05:48.571Z,2090
2016-05-12T08:06:48.433Z,2180
2016-05-12T08:07:48.404Z,2055
2016-05-12T08:08:48.562Z,2060
2016-05-12T08:09:48.394Z,2125
2016-05-12T08:10:48.241Z,2175
2016-05-12T08:11:48.540Z,2070
2016-05-12T08:12:48.527Z,1885
2016-05-12T08:13:48.529Z,2120
2016-05-12T08:14:48.345Z,2330
2016-05-12T08:15:48.519Z,2355
2016-05-12T08:16:48.506Z,2315
2016-05-12T08:17:48.479Z,2225
2016-05-12T08:18:48.574Z,2265
2016-05-12T08:19:48.467Z,2285
2016-05-12T08:20:48.455Z,2320
2016-05-12T08:21:48.457Z,2375
2016-05-12T08:22:48.303Z,2455
2016-05-12T08:23:48.431Z,2525
2016-05-12T08:24:48.434Z,2545
2016-05-12T08:25:48.436Z,2430
2016-05-12T08:26:48.423Z,2365
2016-05-12T08:27:48.411Z,2370
2016-05-12T08:28:48.257Z,2380
2016-05-12T08:29:48.400Z,2315
2016-05-12T08:30:48.091Z,2340
2016-05-12T08:31:49.000Z,2375
2016-05-12T08:32:48.394Z,2330
2016-05-12T08:33:48.381Z,2420
2016-05-12T08:34:48.367Z,2300
2016-05-12T08:35:48.214Z,2275
2016-05-12T08:36:48.372Z,2305
2016-05-12T08:37:48.344Z,2435
2016-05-12T08:38:48.394Z,2540
2016-05-12T08:39:48.318Z,2575
2016-05-12T08:40:48.321Z,2465
2016-05-12T08:41:48.323Z,2270
2016-05-12T08:42:48.310Z,2350
2016-05-12T08:43:48.313Z,2510
2016-05-12T08:44:48.144Z,2420
2016-05-12T08:45:48.287Z,2440
2016-05-12T08:46:48.290Z,2415
2016-05-12T08:47:47.980Z,2415
2016-05-12T08:48:48.279Z,2470
2016-05-12T08:49:48.126Z,2445
2016-05-12T08:50:48.113Z,2435
2016-05-12T08:51:48.272Z,2500
2016-05-12T08:52:48.259Z,2475
2016-05-12T08:53:48.090Z,2440
2016-05-12T08:54:48.092Z,2470
2016-05-12T08:55:48.237Z,2420
2016-05-12T08:56:48.223Z,2400
2016-05-12T08:57:48.225Z,2465
2016-05-12T08:58:48.057Z,2495
2016-05-12T08:59:48.216Z,2440
2016-05-12T09:00:48.046Z,2355
2016-05-12T09:01:49.159Z,2555
2016-05-12T09:02:48.192Z,2650
2016-05-12T09:03:48.195Z,2690
2016-05-12T09:04:48.182Z,2730
2016-05-12T09:05:48.325Z,2690
2016-05-12T09:06:48.719Z,2690
2016-05-12T09:07:48.237Z,2720
2016-05-12T09:08:49.677Z,2710
2016-05-12T09:09:49.321Z,2680
2016-05-12T09:10:48.121Z,2440
2016-05-12T09:11:48.169Z,2130
2016-05-12T09:12:48.157Z,2265
2016-05-12T09:13:48.190Z,2535
2016-05-12T09:14:48.178Z,2625
2016-05-12T09:15:48.040Z,2635
2016-05-12T09:16:48.074Z,2670
2016-05-12T09:17:47.858Z,2580
2016-05-12T09:18:48.001Z,2575
2016-05-12T09:19:48.145Z,2565
2016-05-12T09:20:48.116Z,2545
2016-05-12T09:21:48.759Z,2360
2016-05-12T09:22:48.106Z,2125
2016-05-12T09:23:48.108Z,2010
2016-05-12T09:24:47.939Z,2300
2016-05-12T09:25:47.786Z,2610
2016-05-12T09:26:48.100Z,2560
2016-05-12T09:27:48.072Z,2565
2016-05-12T09:28:47.775Z,2635
2016-05-12T09:29:47.922Z,2685
2016-05-12T09:30:48.080Z,2705
2016-05-12T09:31:47.861Z,2755
2016-05-12T09:32:48.039Z,2800
2016-05-12T09:33:48.057Z,2800
2016-05-12T09:34:48.060Z,2765
2016-05-12T09:35:47.919Z,2735
2016-05-12T09:36:47.906Z,2755
2016-05-12T09:37:48.052Z,2550
2016-05-12T09:38:48.039Z,2465
2016-05-12T09:39:48.058Z,2680
2016-05-12T09:40:48.042Z,2815
2016-05-12T09:41:48.029Z,2775
2016-05-12T09:42:47.875Z,2655
2016-05-12T09:43:48.034Z,2655
2016-05-12T09:44:47.880Z,2830
2016-05-12T09:45:48.024Z,2840
2016-05-12T09:46:47.839Z,2805
2016-05-12T09:47:48.641Z,2825
2016-05-12T09:48:48.016Z,2885
2016-05-12T09:49:48.019Z,2825
2016-05-12T09:50:47.866Z,2810
2016-05-12T09:51:48.040Z,2775
2016-05-12T09:52:48.012Z,2720
2016-05-12T09:53:47.998Z,2615
2016-05-12T09:54:48.017Z,2690
2016-05-12T09:55:47.848Z,2760
2016-05-12T09:56:47.851Z,2780
2016-05-12T09:57:47.853Z,2790
2016-05-12T09:58:47.997Z,2795
2016-05-12T09:59:47.842Z,2660
2016-05-12T10:00:48.002Z,2700
2016-05-12T10:01:47.864Z,2855
2016-05-12T10:02:48.022Z,2830
2016-05-12T10:03:48.386Z,2795
2016-05-12T10:04:47.982Z,2750
2016-05-12T10:05:47.969Z,2745
2016-05-12T10:06:47.972Z,2785
2016-05-12T10:07:47.974Z,2865
2016-05-12T10:08:47.977Z,2840
2016-05-12T10:09:47.964Z,2755
2016-05-12T10:10:47.810Z,2675
2016-05-12T10:11:47.953Z,2800
2016-05-12T10:12:48.002Z,2800
2016-05-12T10:13:47.802Z,2615
2016-05-12T10:14:47.961Z,2730
2016-05-12T10:15:47.651Z,2900
2016-05-12T10:16:48.420Z,2815
2016-05-12T10:17:47.954Z,2915
2016-05-12T10:18:47.957Z,2905
2016-05-12T10:19:47.944Z,2800
2016-05-12T10:20:47.946Z,2620
2016-05-12T10:21:47.793Z,2845
2016-05-12T10:22:47.951Z,2945
2016-05-12T10:23:47.783Z,2880
2016-05-12T10:24:47.942Z,2915
2016-05-12T10:25:47.929Z,2915
2016-05-12T10:26:47.931Z,2830
2016-05-12T10:27:47.918Z,2110
2016-05-12T10:28:47.781Z,935
2016-05-12T10:29:47.923Z,705
2016-05-12T10:30:47.614Z,720
2016-05-12T10:31:47.835Z,1320
2016-05-12T10:32:47.916Z,2555
2016-05-12T10:33:47.904Z,3015
2016-05-12T10:34:47.764Z,2905
2016-05-12T10:35:47.908Z,2835
2016-05-12T10:36:47.895Z,2990
2016-05-12T10:37:47.898Z,2970
2016-05-12T10:38:47.730Z,2855
2016-05-12T10:39:47.888Z,3095
2016-05-12T10:40:47.875Z,3120
2016-05-12T10:41:47.424Z,3060
2016-05-12T10:42:47.568Z,3040
2016-05-12T10:43:47.743Z,3040
2016-05-12T10:44:47.871Z,3095
2016-05-12T10:45:47.732Z,3105
2016-05-12T10:46:48.407Z,3035
2016-05-12T10:47:47.707Z,2955
2016-05-12T10:48:47.866Z,2815
2016-05-12T10:49:47.852Z,2655
2016-05-12T10:50:47.854Z,2670
2016-05-12T10:51:47.686Z,2830
2016-05-12T10:52:47.893Z,2940
2016-05-12T10:53:47.691Z,2950
2016-05-12T10:54:47.851Z,2990
2016-05-12T10:55:47.853Z,3080
2016-05-12T10:56:47.699Z,3040
2016-05-12T10:57:47.859Z,2955
2016-05-12T10:58:47.830Z,2680
2016-05-12T10:59:47.848Z,2535
2016-05-12T11:00:47.834Z,2740
2016-05-12T11:01:47.697Z,3015
2016-05-12T11:02:47.670Z,3040
2016-05-12T11:03:47.827Z,3130
2016-05-12T11:04:48.017Z,3095
2016-05-12T11:05:47.661Z,2965
2016-05-12T11:06:47.851Z,3130
2016-05-12T11:07:47.651Z,3145
2016-05-12T11:08:47.811Z,3195
2016-05-12T11:09:47.812Z,3225
2016-05-12T11:10:47.800Z,3160
2016-05-12T11:11:47.819Z,3135
2016-05-12T11:12:47.805Z,3120
2016-05-12T11:13:47.808Z,3195
2016-05-12T11:14:47.497Z,3200
2016-05-12T11:15:47.813Z,3215
2016-05-12T11:16:47.519Z,3240
2016-05-12T11:17:47.802Z,3180
2016-05-12T11:18:47.790Z,3140
2016-05-12T11:19:47.793Z,3135
2016-05-12T11:20:47.795Z,3170
2016-05-12T11:21:47.782Z,3220
2016-05-12T11:22:47.801Z,3150
2016-05-12T11:23:47.787Z,3130
2016-05-12T11:24:47.790Z,3215
2016-05-12T11:25:47.793Z,3435
2016-05-12T11:26:47.780Z,3475
2016-05-12T11:27:47.782Z,3175
2016-05-12T11:28:47.770Z,3095
2016-05-12T11:29:47.773Z,3195
2016-05-12T11:30:47.776Z,3260
2016-05-12T11:31:47.997Z,3175
2016-05-12T11:32:47.764Z,3040
2016-05-12T11:33:49.471Z,3090
2016-05-12T11:34:47.786Z,2970
2016-05-12T11:35:47.772Z,2770
2016-05-12T11:36:47.604Z,2790
2016-05-12T11:37:47.450Z,2890
2016-05-12T11:38:47.781Z,2940
2016-05-12T11:39:47.768Z,2995
2016-05-12T11:40:47.772Z,3060
2016-05-12T11:41:47.602Z,3150
2016-05-12T11:42:47.744Z,3090
2016-05-12T11:43:47.608Z,3190
2016-05-12T11:44:47.750Z,3300
2016-05-12T11:45:47.597Z,3360
2016-05-12T11:46:47.756Z,3250
2016-05-12T11:47:47.743Z,3215
2016-05-12T11:48:47.761Z,3230
2016-05-12T11:49:47.607Z,3110
2016-05-12T11:50:47.595Z,3090
2016-05-12T11:51:47.597Z,3140
2016-05-12T11:52:47.740Z,3165
2016-05-12T11:53:47.587Z,3155
2016-05-12T11:54:47.746Z,3020
2016-05-12T11:55:47.749Z,2990
2016-05-12T11:56:47.735Z,3055
2016-05-12T11:57:47.738Z,3135
2016-05-12T11:58:47.741Z,3155
2016-05-12T11:59:47.728Z,3215
2016-05-12T12:00:47.590Z,3280
2016-05-12T12:01:48.187Z,3340
2016-05-12T12:02:47.752Z,3450
2016-05-12T12:03:47.740Z,3395
2016-05-12T12:04:47.742Z,3450
2016-05-12T12:05:47.744Z,3365
2016-05-12T12:06:47.731Z,3130
2016-05-12T12:07:47.719Z,3025
2016-05-12T12:08:47.721Z,3035
2016-05-12T12:09:47.756Z,3190
2016-05-12T12:10:47.570Z,2970
2016-05-12T12:11:47.729Z,3075
2016-05-12T12:12:47.747Z,3230
2016-05-12T12:13:47.422Z,3245
2016-05-12T12:14:47.721Z,3100
2016-05-12T12:15:47.771Z,3230
2016-05-12T12:16:47.743Z,3335
2016-05-12T12:17:47.746Z,3190
2016-05-12T12:18:47.733Z,3305
2016-05-12T12:19:47.719Z,3395
2016-05-12T12:20:47.722Z,3400
2016-05-12T12:21:47.724Z,3390
2016-05-12T12:22:47.416Z,3365
2016-05-12T12:23:47.793Z,3385
2016-05-12T12:24:47.718Z,3235
2016-05-12T12:25:47.720Z,3080
2016-05-12T12:26:47.598Z,3130
2016-05-12T12:27:47.726Z,3215
2016-05-12T12:28:47.743Z,3110
2016-05-12T12:29:47.559Z,3100
2016-05-12T12:30:47.733Z,3100
2016-05-12T12:31:47.767Z,3120
2016-05-12T12:32:47.708Z,3180
2016-05-12T12:33:47.554Z,3270
2016-05-12T12:34:47.400Z,3115
2016-05-12T12:35:47.606Z,2720
2016-05-12T12:36:47.703Z,2950
2016-05-12T12:37:47.706Z,3275
2016-05-12T12:38:47.709Z,3355
2016-05-12T12:39:47.555Z,3115
2016-05-12T12:40:47.714Z,3045
2016-05-12T12:41:47.732Z,3085
2016-05-12T12:42:47.703Z,2980
2016-05-12T12:43:47.706Z,3035
2016-05-12T12:44:47.724Z,3180
2016-05-12T12:45:47.555Z,3145
2016-05-12T12:46:47.730Z,3220
2016-05-12T12:47:47.732Z,3175
2016-05-12T12:48:47.719Z,3180
2016-05-12T12:49:47.721Z,3245
2016-05-12T12:50:47.710Z,3270
2016-05-12T12:51:47.383Z,3300
2016-05-12T12:52:47.558Z,3325
2016-05-12T12:53:47.718Z,3375
2016-05-12T12:54:47.720Z,3145
2016-05-12T12:55:47.551Z,2855
2016-05-12T12:56:47.538Z,3050
2016-05-12T12:57:47.713Z,3240
2016-05-12T12:58:47.574Z,3125
2016-05-12T12:59:47.546Z,3120
2016-05-12T13:00:47.799Z,3235
2016-05-12T13:01:48.207Z,3185
2016-05-12T13:02:47.710Z,3325
2016-05-12T13:03:47.712Z,3135
2016-05-12T13:04:47.418Z,2985
2016-05-12T13:05:47.718Z,3145
2016-05-12T13:06:47.736Z,3235
2016-05-12T13:07:47.708Z,3260
2016-05-12T13:08:47.554Z,3245
2016-05-12T13:09:47.713Z,3055
2016-05-12T13:10:47.716Z,2870
2016-05-12T13:11:47.547Z,3050
2016-05-12T13:12:47.722Z,2910
2016-05-12T13:13:47.725Z,2900
2016-05-12T13:14:47.728Z,3080
2016-05-12T13:15:47.729Z,3175
2016-05-12T13:16:47.733Z,3185
2016-05-12T13:17:47.719Z,3035
2016-05-12T13:18:47.722Z,2800
2016-05-12T13:19:47.553Z,2850
2016-05-12T13:20:47.711Z,2540
2016-05-12T13:21:47.730Z,2690
2016-05-12T13:22:47.716Z,3055
2016-05-12T13:23:47.704Z,2915
2016-05-12T13:24:47.722Z,2510
2016-05-12T13:25:47.709Z,2695
2016-05-12T13:26:47.556Z,3035
2016-05-12T13:27:47.730Z,3015
2016-05-12T13:28:47.718Z,2970
2016-05-12T13:29:47.720Z,2985
2016-05-12T13:30:47.676Z,2920
2016-05-12T13:31:47.553Z,3095
2016-05-12T13:32:47.729Z,3055
2016-05-12T13:33:47.575Z,2935
2016-05-12T13:34:47.703Z,2990
2016-05-12T13:35:47.737Z,3065
2016-05-12T13:36:47.723Z,3060
2016-05-12T13:37:47.554Z,2920
2016-05-12T13:38:47.745Z,2845
2016-05-12T13:39:47.731Z,2910
2016-05-12T13:40:47.734Z,2935
2016-05-12T13:41:48.050Z,2880
2016-05-12T13:42:47.708Z,2880
2016-05-12T13:43:47.711Z,2820
2016-05-12T13:44:47.714Z,2640
2016-05-12T13:45:47.700Z,2820
2016-05-12T13:46:47.578Z,2970